Kuantan, Malaysia
Current Conditions -  °F | °C
As of 10:00 PM on Saturday 25 Oct 2014 (Local Time) from WMKD Reporting Station
Broken Clouds Broken Clouds  
Wind Chill: 81°   Ceiling: 28000
Heat Index: 88°   Visibility: 6mi
Dew Point: 79°   Wind: 2mph
Humidity: 94%   Direction: 340°NNW
Pressure: 29.88"   Gusts: NA
Location:  3.82°N, 103.34°E
Report Text: WMKD 251400Z 34002KT 9999 FEW024 BKN280 27/26 Q1012 NOSIG
Loading
Personal Weather Stations






























Interactive Weather Map
Tropical Storm Tracking
New forecast layout! Learn more

10-Day Weather Forecast

Advertisements
Track Severe Weather on mobile